sensor_id;sensor_type;location;lat;lon;timestamp;pressure;altitude;pressure_sealevel;temperature;humidity
70900;BME280;67902;52.154;5.430;2023-04-10T00:01:05;102192.84;;;9.70;63.38
70900;BME280;67902;52.154;5.430;2023-04-10T00:03:32;102185.56;;;9.70;64.49
70900;BME280;67902;52.154;5.430;2023-04-10T00:05:59;102179.75;;;9.73;63.70
70900;BME280;67902;52.154;5.430;2023-04-10T00:08:25;102169.31;;;9.77;62.94
70900;BME280;67902;52.154;5.430;2023-04-10T00:10:51;102165.59;;;9.78;62.63
70900;BME280;67902;52.154;5.430;2023-04-10T00:13:22;102158.94;;;9.74;63.20
70900;BME280;67902;52.154;5.430;2023-04-10T00:15:48;102164.34;;;9.74;63.07
70900;BME280;67902;52.154;5.430;2023-04-10T00:18:15;102166.81;;;9.69;63.43
70900;BME280;67902;52.154;5.430;2023-04-10T00:20:42;102162.22;;;9.63;63.42
70900;BME280;67902;52.154;5.430;2023-04-10T00:23:09;102153.06;;;9.51;63.83
70900;BME280;67902;52.154;5.430;2023-04-10T00:25:35;102148.50;;;9.58;63.77
70900;BME280;67902;52.154;5.430;2023-04-10T00:28:01;102146.84;;;9.57;63.58
70900;BME280;67902;52.154;5.430;2023-04-10T00:30:28;102143.09;;;9.58;63.53
70900;BME280;67902;52.154;5.430;2023-04-10T00:32:54;102138.72;;;9.57;63.79
70900;BME280;67902;52.154;5.430;2023-04-10T00:35:21;102125.63;;;9.54;63.43
70900;BME280;67902;52.154;5.430;2023-04-10T00:37:47;102120.84;;;9.56;63.26
70900;BME280;67902;52.154;5.430;2023-04-10T00:40:15;102117.69;;;9.52;63.95
70900;BME280;67902;52.154;5.430;2023-04-10T00:42:42;102124.56;;;9.42;64.37
70900;BME280;67902;52.154;5.430;2023-04-10T00:45:08;102111.84;;;9.36;64.68
70900;BME280;67902;52.154;5.430;2023-04-10T00:47:36;102117.25;;;9.36;64.47
70900;BME280;67902;52.154;5.430;2023-04-10T00:50:03;102121.19;;;9.26;65.19
70900;BME280;67902;52.154;5.430;2023-04-10T00:52:31;102111.41;;;9.25;65.84
70900;BME280;67902;52.154;5.430;2023-04-10T00:54:57;102118.25;;;9.21;66.09
70900;BME280;67902;52.154;5.430;2023-04-10T00:57:24;102110.56;;;9.18;65.57
70900;BME280;67902;52.154;5.430;2023-04-10T00:59:52;102103.03;;;9.07;66.39
70900;BME280;67902;52.154;5.430;2023-04-10T01:02:19;102109.28;;;9.08;66.21
70900;BME280;67902;52.154;5.430;2023-04-10T01:04:46;102107.19;;;9.10;66.44
70900;BME280;67902;52.154;5.430;2023-04-10T01:07:36;102101.41;;;9.06;66.27
70900;BME280;67902;52.154;5.430;2023-04-10T01:10:22;102105.53;;;9.02;66.46
70900;BME280;67902;52.154;5.430;2023-04-10T01:13:08;102103.44;;;9.04;66.59
70900;BME280;67902;52.154;5.430;2023-04-10T01:15:47;102112.19;;;9.06;66.42
70900;BME280;67902;52.154;5.430;2023-04-10T01:18:20;102099.03;;;8.90;67.03
70900;BME280;67902;52.154;5.430;2023-04-10T01:20:49;102095.66;;;8.75;67.20
70900;BME280;67902;52.154;5.430;2023-04-10T01:23:39;102091.91;;;8.69;67.19
70900;BME280;67902;52.154;5.430;2023-04-10T01:26:09;102088.59;;;8.74;67.03
70900;BME280;67902;52.154;5.430;2023-04-10T01:28:51;102080.09;;;8.77;67.29
70900;BME280;67902;52.154;5.430;2023-04-10T01:31:29;102078.66;;;8.81;66.96
70900;BME280;67902;52.154;5.430;2023-04-10T01:34:03;102076.31;;;8.71;67.88
70900;BME280;67902;52.154;5.430;2023-04-10T01:36:35;102075.91;;;8.74;68.16
70900;BME280;67902;52.154;5.430;2023-04-10T01:39:04;102075.31;;;8.79;67.36
70900;BME280;67902;52.154;5.430;2023-04-10T01:41:32;102066.78;;;8.76;68.02
70900;BME280;67902;52.154;5.430;2023-04-10T01:44:01;102071.53;;;8.73;68.25
70900;BME280;67902;52.154;5.430;2023-04-10T01:46:29;102068.84;;;8.67;67.72
70900;BME280;67902;52.154;5.430;2023-04-10T01:48:59;102068.00;;;8.66;67.53
70900;BME280;67902;52.154;5.430;2023-04-10T01:51:26;102065.31;;;8.73;68.19
70900;BME280;67902;52.154;5.430;2023-04-10T01:53:54;102061.56;;;8.74;68.40
70900;BME280;67902;52.154;5.430;2023-04-10T01:56:21;102065.97;;;8.82;68.32
70900;BME280;67902;52.154;5.430;2023-04-10T01:58:48;102057.28;;;8.86;68.23
70900;BME280;67902;52.154;5.430;2023-04-10T02:01:19;102062.66;;;8.86;68.34
70900;BME280;67902;52.154;5.430;2023-04-10T02:03:56;102061.00;;;8.85;68.84
70900;BME280;67902;52.154;5.430;2023-04-10T02:06:50;102049.34;;;8.78;68.18
70900;BME280;67902;52.154;5.430;2023-04-10T02:11:57;102054.94;;;8.77;68.77
70900;BME280;67902;52.154;5.430;2023-04-10T02:14:26;102048.47;;;8.71;68.97
70900;BME280;67902;52.154;5.430;2023-04-10T02:16:56;102049.94;;;8.67;68.70
70900;BME280;67902;52.154;5.430;2023-04-10T02:19:24;102057.63;;;8.70;68.29
70900;BME280;67902;52.154;5.430;2023-04-10T02:21:52;102046.00;;;8.69;69.54
70900;BME280;67902;52.154;5.430;2023-04-10T02:24:19;102053.47;;;8.74;68.33
70900;BME280;67902;52.154;5.430;2023-04-10T02:26:47;102044.13;;;8.70;69.72
70900;BME280;67902;52.154;5.430;2023-04-10T02:29:14;102037.03;;;8.62;69.45
70900;BME280;67902;52.154;5.430;2023-04-10T02:31:41;102040.13;;;8.59;69.65
70900;BME280;67902;52.154;5.430;2023-04-10T02:34:08;102040.34;;;8.58;69.38
70900;BME280;67902;52.154;5.430;2023-04-10T02:36:36;102036.34;;;8.54;69.29
70900;BME280;67902;52.154;5.430;2023-04-10T02:39:03;102040.69;;;8.48;70.43
70900;BME280;67902;52.154;5.430;2023-04-10T02:41:30;102044.19;;;8.42;70.85
70900;BME280;67902;52.154;5.430;2023-04-10T02:43:56;102041.72;;;8.41;70.52
70900;BME280;67902;52.154;5.430;2023-04-10T02:46:22;102042.34;;;8.43;70.51
70900;BME280;67902;52.154;5.430;2023-04-10T02:48:51;102035.69;;;8.39;70.37
70900;BME280;67902;52.154;5.430;2023-04-10T02:51:17;102037.72;;;8.37;71.37
70900;BME280;67902;52.154;5.430;2023-04-10T02:53:43;102037.31;;;8.33;71.12
70900;BME280;67902;52.154;5.430;2023-04-10T02:56:10;102037.09;;;8.35;71.49
70900;BME280;67902;52.154;5.430;2023-04-10T02:58:37;102036.88;;;8.30;71.33
70900;BME280;67902;52.154;5.430;2023-04-10T03:01:05;102047.66;;;8.30;71.05
70900;BME280;67902;52.154;5.430;2023-04-10T03:03:35;102045.59;;;8.32;70.79
70900;BME280;67902;52.154;5.430;2023-04-10T03:06:01;102047.41;;;8.25;70.89
70900;BME280;67902;52.154;5.430;2023-04-10T03:08:28;102046.84;;;8.29;70.87
70900;BME280;67902;52.154;5.430;2023-04-10T03:10:55;102045.59;;;8.32;70.26
70900;BME280;67902;52.154;5.430;2023-04-10T03:13:21;102045.16;;;8.28;70.82
70900;BME280;67902;52.154;5.430;2023-04-10T03:15:51;102053.19;;;8.22;71.79
70900;BME280;67902;52.154;5.430;2023-04-10T03:18:17;102038.19;;;8.12;71.72
70900;BME280;67902;52.154;5.430;2023-04-10T03:20:44;102046.91;;;8.08;71.96
70900;BME280;67902;52.154;5.430;2023-04-10T03:23:10;102039.19;;;8.05;72.21
70900;BME280;67902;52.154;5.430;2023-04-10T03:25:37;102039.34;;;7.97;71.76
70900;BME280;67902;52.154;5.430;2023-04-10T03:28:03;102047.63;;;7.95;71.88
70900;BME280;67902;52.154;5.430;2023-04-10T03:30:30;102036.84;;;7.95;71.71
70900;BME280;67902;52.154;5.430;2023-04-10T03:32:56;102036.59;;;7.90;72.07
70900;BME280;67902;52.154;5.430;2023-04-10T03:35:22;102028.97;;;7.94;72.23
70900;BME280;67902;52.154;5.430;2023-04-10T03:37:49;102035.81;;;7.96;70.95
70900;BME280;67902;52.154;5.430;2023-04-10T03:40:15;102031.91;;;7.99;71.46
70900;BME280;67902;52.154;5.430;2023-04-10T03:42:42;102021.94;;;7.99;71.18
70900;BME280;67902;52.154;5.430;2023-04-10T03:45:08;102024.63;;;7.99;70.35
70900;BME280;67902;52.154;5.430;2023-04-10T03:47:36;102022.34;;;8.03;71.24
70900;BME280;67902;52.154;5.430;2023-04-10T03:50:02;102020.47;;;7.97;70.55
70900;BME280;67902;52.154;5.430;2023-04-10T03:52:29;102020.66;;;7.95;71.02
70900;BME280;67902;52.154;5.430;2023-04-10T03:54:55;102021.44;;;7.89;71.19
70900;BME280;67902;52.154;5.430;2023-04-10T03:57:22;102021.44;;;7.89;71.08
70900;BME280;67902;52.154;5.430;2023-04-10T03:59:48;102016.22;;;7.81;71.53
70900;BME280;67902;52.154;5.430;2023-04-10T04:02:15;102015.06;;;7.69;72.12
70900;BME280;67902;52.154;5.430;2023-04-10T04:04:41;102004.75;;;7.73;71.26
70900;BME280;67902;52.154;5.430;2023-04-10T04:07:08;102001.09;;;7.80;71.40
70900;BME280;67902;52.154;5.430;2023-04-10T04:09:35;102000.09;;;7.88;71.00
70900;BME280;67902;52.154;5.430;2023-04-10T04:12:02;101994.09;;;7.92;70.82
70900;BME280;67902;52.154;5.430;2023-04-10T04:14:28;101986.44;;;7.96;71.00
70900;BME280;67902;52.154;5.430;2023-04-10T04:16:54;101986.88;;;7.99;70.08
70900;BME280;67902;52.154;5.430;2023-04-10T04:19:21;101985.84;;;8.00;70.46
70900;BME280;67902;52.154;5.430;2023-04-10T04:21:47;101989.19;;;8.02;70.70
70900;BME280;67902;52.154;5.430;2023-04-10T04:24:14;101990.41;;;8.00;70.11
70900;BME280;67902;52.154;5.430;2023-04-10T04:26:40;101982.72;;;7.97;70.47
70900;BME280;67902;52.154;5.430;2023-04-10T04:29:06;101988.28;;;7.95;70.99
70900;BME280;67902;52.154;5.430;2023-04-10T04:31:33;101991.78;;;7.89;70.54
70900;BME280;67902;52.154;5.430;2023-04-10T04:34:00;101995.72;;;7.87;71.29
70900;BME280;67902;52.154;5.430;2023-04-10T04:36:27;101988.25;;;7.89;70.67
70900;BME280;67902;52.154;5.430;2023-04-10T04:38:53;101985.38;;;7.90;70.50
70900;BME280;67902;52.154;5.430;2023-04-10T04:41:20;101977.47;;;7.89;70.91
70900;BME280;67902;52.154;5.430;2023-04-10T04:43:47;101987.22;;;7.90;70.68
70900;BME280;67902;52.154;5.430;2023-04-10T04:46:14;101980.59;;;7.86;70.94
70900;BME280;67902;52.154;5.430;2023-04-10T04:48:41;101978.28;;;7.83;70.31
70900;BME280;67902;52.154;5.430;2023-04-10T04:51:07;101973.47;;;7.78;70.87
70900;BME280;67902;52.154;5.430;2023-04-10T04:53:33;101973.22;;;7.73;70.77
70900;BME280;67902;52.154;5.430;2023-04-10T04:56:00;101972.38;;;7.73;70.18
70900;BME280;67902;52.154;5.430;2023-04-10T04:58:26;101967.38;;;7.70;71.30
70900;BME280;67902;52.154;5.430;2023-04-10T05:00:53;101976.53;;;7.69;71.47
70900;BME280;67902;52.154;5.430;2023-04-10T05:03:20;101975.25;;;7.65;71.36
70900;BME280;67902;52.154;5.430;2023-04-10T05:05:47;101978.16;;;7.63;72.23
70900;BME280;67902;52.154;5.430;2023-04-10T05:08:13;101978.97;;;7.64;71.46
70900;BME280;67902;52.154;5.430;2023-04-10T05:10:39;101974.41;;;7.64;71.03
70900;BME280;67902;52.154;5.430;2023-04-10T05:13:06;101968.63;;;7.67;71.73
70900;BME280;67902;52.154;5.430;2023-04-10T05:15:32;101961.81;;;7.71;71.50
70900;BME280;67902;52.154;5.430;2023-04-10T05:17:59;101958.28;;;7.71;71.65
70900;BME280;67902;52.154;5.430;2023-04-10T05:20:25;101962.44;;;7.73;72.08
70900;BME280;67902;52.154;5.430;2023-04-10T05:22:52;101964.13;;;7.74;71.85
70900;BME280;67902;52.154;5.430;2023-04-10T05:25:18;101965.38;;;7.78;71.46
70900;BME280;67902;52.154;5.430;2023-04-10T05:27:45;101965.81;;;7.82;71.17
70900;BME280;67902;52.154;5.430;2023-04-10T05:30:11;101965.81;;;7.82;71.01
70900;BME280;67902;52.154;5.430;2023-04-10T05:32:37;101971.88;;;7.90;71.22
70900;BME280;67902;52.154;5.430;2023-04-10T05:35:04;101967.75;;;7.94;71.67
70900;BME280;67902;52.154;5.430;2023-04-10T05:37:31;101963.63;;;7.98;71.56
70900;BME280;67902;52.154;5.430;2023-04-10T05:39:58;101957.44;;;8.04;70.86
70900;BME280;67902;52.154;5.430;2023-04-10T05:42:25;101959.34;;;8.10;70.51
70900;BME280;67902;52.154;5.430;2023-04-10T05:44:51;101956.03;;;8.15;70.54
70900;BME280;67902;52.154;5.430;2023-04-10T05:47:18;101954.41;;;8.21;70.20
70900;BME280;67902;52.154;5.430;2023-04-10T05:49:44;101945.28;;;8.22;70.39
70900;BME280;67902;52.154;5.430;2023-04-10T05:52:10;101956.09;;;8.28;69.34
70900;BME280;67902;52.154;5.430;2023-04-10T05:54:37;101957.81;;;8.36;69.95
70900;BME280;67902;52.154;5.430;2023-04-10T05:57:03;101953.66;;;8.40;70.11
70900;BME280;67902;52.154;5.430;2023-04-10T05:59:29;101948.31;;;8.46;69.55
70900;BME280;67902;52.154;5.430;2023-04-10T06:01:56;101947.50;;;8.52;69.78
70900;BME280;67902;52.154;5.430;2023-04-10T06:04:23;101950.19;;;8.59;69.55
70900;BME280;67902;52.154;5.430;2023-04-10T06:06:49;101948.34;;;8.66;69.90
70900;BME280;67902;52.154;5.430;2023-04-10T06:09:16;101943.16;;;8.71;69.07
70900;BME280;67902;52.154;5.430;2023-04-10T06:11:42;101946.31;;;8.74;69.14
70900;BME280;67902;52.154;5.430;2023-04-10T06:14:09;101944.44;;;8.82;69.26
70900;BME280;67902;52.154;5.430;2023-04-10T06:16:35;101935.50;;;8.88;69.17
70900;BME280;67902;52.154;5.430;2023-04-10T06:19:02;101934.25;;;8.90;68.90
70900;BME280;67902;52.154;5.430;2023-04-10T06:21:28;101927.41;;;8.94;69.83
70900;BME280;67902;52.154;5.430;2023-04-10T06:23:55;101923.50;;;9.03;68.88
70900;BME280;67902;52.154;5.430;2023-04-10T06:26:23;101918.91;;;9.10;68.61
70900;BME280;67902;52.154;5.430;2023-04-10T06:28:49;101916.81;;;9.12;68.03
70900;BME280;67902;52.154;5.430;2023-04-10T06:31:18;101914.34;;;9.17;68.14
70900;BME280;67902;52.154;5.430;2023-04-10T06:33:48;101910.16;;;9.21;68.29
70900;BME280;67902;52.154;5.430;2023-04-10T06:36:15;101903.94;;;9.27;68.56
70900;BME280;67902;52.154;5.430;2023-04-10T06:38:42;101904.34;;;9.31;67.37
70900;BME280;67902;52.154;5.430;2023-04-10T06:41:08;101900.16;;;9.35;67.58
70900;BME280;67902;52.154;5.430;2023-04-10T06:43:35;101890.63;;;9.39;68.40
70900;BME280;67902;52.154;5.430;2023-04-10T06:46:02;101888.31;;;9.43;66.09
70900;BME280;67902;52.154;5.430;2023-04-10T06:48:30;101885.22;;;9.46;67.03
70900;BME280;67902;52.154;5.430;2023-04-10T06:50:57;101887.25;;;9.50;66.15
70900;BME280;67902;52.154;5.430;2023-04-10T06:53:26;101875.81;;;9.55;67.17
70900;BME280;67902;52.154;5.430;2023-04-10T06:55:52;101871.41;;;9.60;67.01
70900;BME280;67902;52.154;5.430;2023-04-10T06:58:19;101878.50;;;9.68;65.96
70900;BME280;67902;52.154;5.430;2023-04-10T07:00:46;101875.13;;;9.72;65.78
70900;BME280;67902;52.154;5.430;2023-04-10T07:03:12;101872.41;;;9.79;66.37
70900;BME280;67902;52.154;5.430;2023-04-10T07:05:39;101871.34;;;9.86;65.75
70900;BME280;67902;52.154;5.430;2023-04-10T07:08:07;101862.38;;;9.93;65.92
70900;BME280;67902;52.154;5.430;2023-04-10T07:10:34;101857.75;;;10.00;65.99
70900;BME280;67902;52.154;5.430;2023-04-10T07:13:00;101837.75;;;10.07;65.73
70900;BME280;67902;52.154;5.430;2023-04-10T07:15:26;101836.88;;;10.20;64.55
70900;BME280;67902;52.154;5.430;2023-04-10T07:17:53;101832.00;;;10.35;65.04
70900;BME280;67902;52.154;5.430;2023-04-10T07:20:21;101825.28;;;10.44;65.49
70900;BME280;67902;52.154;5.430;2023-04-10T07:22:47;101821.88;;;10.55;64.31
70900;BME280;67902;52.154;5.430;2023-04-10T07:25:14;101825.94;;;10.64;63.80
70900;BME280;67902;52.154;5.430;2023-04-10T07:27:40;101821.88;;;10.80;64.43
70900;BME280;67902;52.154;5.430;2023-04-10T07:30:07;101808.63;;;10.90;63.77
70900;BME280;67902;52.154;5.430;2023-04-10T07:32:33;101808.28;;;11.04;62.25
70900;BME280;67902;52.154;5.430;2023-04-10T07:35:00;101804.34;;;11.25;61.10
70900;BME280;67902;52.154;5.430;2023-04-10T07:37:26;101809.31;;;11.46;60.28
70900;BME280;67902;52.154;5.430;2023-04-10T07:39:53;101806.44;;;11.59;61.21
70900;BME280;67902;52.154;5.430;2023-04-10T07:42:19;101797.72;;;11.76;58.54
70900;BME280;67902;52.154;5.430;2023-04-10T07:44:46;101800.97;;;11.96;58.53
70900;BME280;67902;52.154;5.430;2023-04-10T07:47:12;101797.97;;;12.04;59.35
70900;BME280;67902;52.154;5.430;2023-04-10T07:49:39;101791.50;;;12.16;57.15
70900;BME280;67902;52.154;5.430;2023-04-10T07:52:06;101790.13;;;12.26;57.15
70900;BME280;67902;52.154;5.430;2023-04-10T07:54:33;101790.16;;;12.37;56.87
70900;BME280;67902;52.154;5.430;2023-04-10T07:56:59;101783.94;;;12.48;56.90
70900;BME280;67902;52.154;5.430;2023-04-10T07:59:26;101779.59;;;12.70;57.77
70900;BME280;67902;52.154;5.430;2023-04-10T08:01:54;101787.16;;;12.80;54.35
70900;BME280;67902;52.154;5.430;2023-04-10T08:04:20;101774.81;;;12.43;56.93
70900;BME280;67902;52.154;5.430;2023-04-10T08:06:47;101770.28;;;12.25;57.37
70900;BME280;67902;52.154;5.430;2023-04-10T08:09:15;101770.84;;;12.15;56.87
70900;BME280;67902;52.154;5.430;2023-04-10T08:11:41;101768.19;;;11.97;57.40
70900;BME280;67902;52.154;5.430;2023-04-10T08:14:07;101769.31;;;11.78;57.31
70900;BME280;67902;52.154;5.430;2023-04-10T08:16:34;101756.56;;;11.79;58.98
70900;BME280;67902;52.154;5.430;2023-04-10T08:19:01;101762.28;;;11.89;60.62
70900;BME280;67902;52.154;5.430;2023-04-10T08:21:29;101766.53;;;11.96;59.66
70900;BME280;67902;52.154;5.430;2023-04-10T08:23:58;101765.78;;;12.19;57.88
70900;BME280;67902;52.154;5.430;2023-04-10T08:26:26;101758.16;;;12.39;58.24
70900;BME280;67902;52.154;5.430;2023-04-10T08:28:55;101759.97;;;12.68;57.85
70900;BME280;67902;52.154;5.430;2023-04-10T08:31:23;101758.34;;;12.91;57.81
70900;BME280;67902;52.154;5.430;2023-04-10T08:33:50;101760.59;;;12.94;56.56
70900;BME280;67902;52.154;5.430;2023-04-10T08:36:17;101745.44;;;12.86;55.93
70900;BME280;67902;52.154;5.430;2023-04-10T08:38:46;101737.53;;;12.85;57.26
70900;BME280;67902;52.154;5.430;2023-04-10T08:41:14;101745.69;;;12.85;57.04
70900;BME280;67902;52.154;5.430;2023-04-10T08:43:41;101734.34;;;12.76;56.11
70900;BME280;67902;52.154;5.430;2023-04-10T08:46:09;101728.53;;;12.72;56.38
70900;BME280;67902;52.154;5.430;2023-04-10T08:48:46;101730.41;;;12.60;56.52
70900;BME280;67902;52.154;5.430;2023-04-10T08:51:18;101735.63;;;12.50;56.91
70900;BME280;67902;52.154;5.430;2023-04-10T08:53:53;101720.50;;;12.43;56.81
70900;BME280;67902;52.154;5.430;2023-04-10T08:56:23;101724.16;;;12.37;57.19
70900;BME280;67902;52.154;5.430;2023-04-10T08:58:50;101720.13;;;12.28;58.79
70900;BME280;67902;52.154;5.430;2023-04-10T09:01:19;101726.84;;;12.25;58.41
70900;BME280;67902;52.154;5.430;2023-04-10T09:03:46;101727.59;;;12.32;57.13
70900;BME280;67902;52.154;5.430;2023-04-10T09:06:13;101729.94;;;12.29;59.06
70900;BME280;67902;52.154;5.430;2023-04-10T09:08:40;101721.19;;;12.27;57.93
70900;BME280;67902;52.154;5.430;2023-04-10T09:11:06;101713.25;;;12.25;57.31
70900;BME280;67902;52.154;5.430;2023-04-10T09:13:37;101708.28;;;12.22;58.44
70900;BME280;67902;52.154;5.430;2023-04-10T09:16:04;101701.34;;;12.26;60.98
70900;BME280;67902;52.154;5.430;2023-04-10T09:21:17;101693.78;;;12.28;58.16
70900;BME280;67902;52.154;5.430;2023-04-10T09:23:44;101691.19;;;12.33;60.36
70900;BME280;67902;52.154;5.430;2023-04-10T09:26:21;101686.84;;;12.32;57.35
70900;BME280;67902;52.154;5.430;2023-04-10T09:31:32;101678.91;;;12.31;58.39
70900;BME280;67902;52.154;5.430;2023-04-10T09:34:22;101665.44;;;12.36;59.46
70900;BME280;67902;52.154;5.430;2023-04-10T09:36:56;101665.22;;;12.37;57.73
70900;BME280;67902;52.154;5.430;2023-04-10T09:39:34;101662.63;;;12.42;57.67
70900;BME280;67902;52.154;5.430;2023-04-10T09:42:01;101660.84;;;12.48;59.35
70900;BME280;67902;52.154;5.430;2023-04-10T09:44:33;101652.34;;;12.56;58.44
70900;BME280;67902;52.154;5.430;2023-04-10T09:49:46;101638.50;;;12.69;57.10
70900;BME280;67902;52.154;5.430;2023-04-10T09:52:36;101632.38;;;12.73;57.99
70900;BME280;67902;52.154;5.430;2023-04-10T09:55:04;101624.69;;;12.82;57.40
70900;BME280;67902;52.154;5.430;2023-04-10T09:57:34;101624.75;;;12.99;57.71
70900;BME280;67902;52.154;5.430;2023-04-10T10:00:03;101637.97;;;13.07;57.04
70900;BME280;67902;52.154;5.430;2023-04-10T10:02:34;101621.88;;;13.17;57.40
70900;BME280;67902;52.154;5.430;2023-04-10T10:05:03;101614.41;;;13.24;58.60
70900;BME280;67902;52.154;5.430;2023-04-10T10:07:30;101619.13;;;13.28;57.01
70900;BME280;67902;52.154;5.430;2023-04-10T10:09:57;101605.94;;;13.37;56.94
70900;BME280;67902;52.154;5.430;2023-04-10T10:12:39;101605.13;;;13.36;56.52
70900;BME280;67902;52.154;5.430;2023-04-10T10:20:49;101588.03;;;13.69;56.23
70900;BME280;67902;52.154;5.430;2023-04-10T10:23:16;101583.25;;;13.76;57.75
70900;BME280;67902;52.154;5.430;2023-04-10T10:25:43;101577.81;;;13.76;57.83
70900;BME280;67902;52.154;5.430;2023-04-10T10:28:15;101588.88;;;13.86;56.46
70900;BME280;67902;52.154;5.430;2023-04-10T10:30:41;101569.16;;;13.79;55.65
70900;BME280;67902;52.154;5.430;2023-04-10T10:33:11;101570.69;;;13.75;55.86
70900;BME280;67902;52.154;5.430;2023-04-10T10:35:39;101565.38;;;13.80;54.65
70900;BME280;67902;52.154;5.430;2023-04-10T10:38:06;101557.34;;;13.90;55.50
70900;BME280;67902;52.154;5.430;2023-04-10T10:40:41;101561.53;;;14.15;55.86
70900;BME280;67902;52.154;5.430;2023-04-10T10:43:15;101546.41;;;14.24;55.42
70900;BME280;67902;52.154;5.430;2023-04-10T10:46:05;101552.84;;;14.34;53.47
70900;BME280;67902;52.154;5.430;2023-04-10T10:48:32;101547.72;;;14.38;55.44
70900;BME280;67902;52.154;5.430;2023-04-10T10:51:00;101538.09;;;14.52;54.45
70900;BME280;67902;52.154;5.430;2023-04-10T10:53:35;101548.00;;;14.58;54.23
70900;BME280;67902;52.154;5.430;2023-04-10T10:58:47;101527.00;;;14.80;54.07
70900;BME280;67902;52.154;5.430;2023-04-10T11:01:14;101517.56;;;15.15;51.94
70900;BME280;67902;52.154;5.430;2023-04-10T11:03:42;101514.63;;;15.48;51.52
70900;BME280;67902;52.154;5.430;2023-04-10T11:06:18;101533.13;;;15.73;51.39
70900;BME280;67902;52.154;5.430;2023-04-10T11:08:48;101520.13;;;15.85;51.13
70900;BME280;67902;52.154;5.430;2023-04-10T11:11:26;101505.03;;;16.14;49.10
70900;BME280;67902;52.154;5.430;2023-04-10T11:16:39;101496.69;;;16.46;49.21
70900;BME280;67902;52.154;5.430;2023-04-10T11:19:08;101490.75;;;16.54;48.96
70900;BME280;67902;52.154;5.430;2023-04-10T11:22:04;101477.25;;;16.42;49.96
70900;BME280;67902;52.154;5.430;2023-04-10T11:27:40;101470.34;;;16.19;50.94
70900;BME280;67902;52.154;5.430;2023-04-10T11:32:53;101459.06;;;16.06;51.70
70900;BME280;67902;52.154;5.430;2023-04-10T11:35:20;101464.19;;;15.97;51.43
70900;BME280;67902;52.154;5.430;2023-04-10T11:37:46;101476.47;;;15.95;51.13
70900;BME280;67902;52.154;5.430;2023-04-10T11:40:13;101445.56;;;15.89;51.62
70900;BME280;67902;52.154;5.430;2023-04-10T11:42:39;101461.38;;;15.82;51.99
70900;BME280;67902;52.154;5.430;2023-04-10T11:45:25;101445.56;;;15.89;51.73
70900;BME280;67902;52.154;5.430;2023-04-10T11:47:53;101426.44;;;15.89;51.01
70900;BME280;67902;52.154;5.430;2023-04-10T11:50:20;101422.72;;;16.05;52.24
70900;BME280;67902;52.154;5.430;2023-04-10T11:52:49;101424.88;;;16.03;50.36
70900;BME280;67902;52.154;5.430;2023-04-10T11:55:16;101431.78;;;16.11;51.97
70900;BME280;67902;52.154;5.430;2023-04-10T11:57:44;101422.53;;;16.22;51.11
70900;BME280;67902;52.154;5.430;2023-04-10T12:00:11;101414.34;;;16.22;50.50
70900;BME280;67902;52.154;5.430;2023-04-10T12:02:51;101413.81;;;16.25;51.40
70900;BME280;67902;52.154;5.430;2023-04-10T12:05:20;101407.59;;;16.45;53.26
70900;BME280;67902;52.154;5.430;2023-04-10T12:07:48;101407.69;;;16.75;51.65
70900;BME280;67902;52.154;5.430;2023-04-10T12:10:15;101412.63;;;16.78;50.23
70900;BME280;67902;52.154;5.430;2023-04-10T12:12:41;101397.47;;;16.50;50.37
70900;BME280;67902;52.154;5.430;2023-04-10T12:15:27;101417.63;;;16.34;50.89
70900;BME280;67902;52.154;5.430;2023-04-10T12:17:54;101382.41;;;16.38;52.12
70900;BME280;67902;52.154;5.430;2023-04-10T12:20:21;101379.69;;;16.43;52.60
70900;BME280;67902;52.154;5.430;2023-04-10T12:22:53;101381.28;;;16.34;51.76
70900;BME280;67902;52.154;5.430;2023-04-10T12:25:21;101375.25;;;16.16;51.66
70900;BME280;67902;52.154;5.430;2023-04-10T12:27:48;101391.88;;;16.15;50.93
70900;BME280;67902;52.154;5.430;2023-04-10T12:30:16;101374.13;;;16.17;51.65
70900;BME280;67902;52.154;5.430;2023-04-10T12:32:50;101369.78;;;16.16;53.57
70900;BME280;67902;52.154;5.430;2023-04-10T12:35:17;101353.31;;;16.06;52.12
70900;BME280;67902;52.154;5.430;2023-04-10T12:37:51;101350.03;;;16.04;51.70
70900;BME280;67902;52.154;5.430;2023-04-10T12:40:17;101346.25;;;16.05;51.97
70900;BME280;67902;52.154;5.430;2023-04-10T12:42:45;101320.00;;;15.99;51.19
70900;BME280;67902;52.154;5.430;2023-04-10T12:45:12;101330.59;;;15.91;52.69
70900;BME280;67902;52.154;5.430;2023-04-10T12:47:47;101309.53;;;15.86;52.23
70900;BME280;67902;52.154;5.430;2023-04-10T12:50:18;101328.09;;;15.84;52.98
70900;BME280;67902;52.154;5.430;2023-04-10T12:53:02;101321.78;;;15.74;52.47
70900;BME280;67902;52.154;5.430;2023-04-10T12:55:29;101314.38;;;15.69;53.28
70900;BME280;67902;52.154;5.430;2023-04-10T12:57:56;101304.03;;;15.66;52.53
70900;BME280;67902;52.154;5.430;2023-04-10T13:00:24;101297.97;;;15.59;53.24
70900;BME280;67902;52.154;5.430;2023-04-10T13:02:50;101296.28;;;15.53;54.02
70900;BME280;67902;52.154;5.430;2023-04-10T13:05:17;101282.91;;;15.46;54.02
70900;BME280;67902;52.154;5.430;2023-04-10T13:07:44;101283.41;;;15.43;52.43
70900;BME280;67902;52.154;5.430;2023-04-10T13:10:11;101278.75;;;15.44;53.53
70900;BME280;67902;52.154;5.430;2023-04-10T13:12:37;101273.28;;;15.44;53.72
70900;BME280;67902;52.154;5.430;2023-04-10T13:15:04;101249.28;;;15.41;52.85
70900;BME280;67902;52.154;5.430;2023-04-10T13:17:32;101241.09;;;15.41;53.97
70900;BME280;67902;52.154;5.430;2023-04-10T13:19:59;101247.63;;;15.40;53.29
70900;BME280;67902;52.154;5.430;2023-04-10T13:22:25;101246.53;;;15.41;53.94
70900;BME280;67902;52.154;5.430;2023-04-10T13:24:51;101244.38;;;15.43;53.61
70900;BME280;67902;52.154;5.430;2023-04-10T13:27:18;101240.53;;;15.44;51.99
70900;BME280;67902;52.154;5.430;2023-04-10T13:29:44;101240.53;;;15.44;54.11